createdAt,value
2018-12-18T00:02:21.546Z,5.70
2018-12-18T00:04:49.907Z,5.70
2018-12-18T00:07:18.274Z,5.70
2018-12-18T00:09:46.667Z,5.90
2018-12-18T00:12:15.043Z,5.90
2018-12-18T00:14:43.406Z,6.00
2018-12-18T00:17:12.055Z,5.90
2018-12-18T00:19:40.424Z,6.00
2018-12-18T00:22:09.479Z,6.10
2018-12-18T00:24:37.886Z,6.10
2018-12-18T00:27:06.254Z,6.10
2018-12-18T00:29:34.619Z,6.20
2018-12-18T00:32:03.471Z,6.20
2018-12-18T00:34:31.837Z,6.20
2018-12-18T00:37:00.213Z,6.20
2018-12-18T00:39:28.973Z,6.20
2018-12-18T00:41:57.551Z,6.30
2018-12-18T00:44:26.227Z,6.30
2018-12-18T00:46:55.835Z,6.30
2018-12-18T00:49:24.355Z,6.40
2018-12-18T00:51:52.756Z,6.30
2018-12-18T00:54:21.194Z,6.40
2018-12-18T00:56:49.566Z,6.50
2018-12-18T00:59:17.923Z,6.40
2018-12-18T01:01:50.534Z,6.50
2018-12-18T01:04:18.892Z,6.50
2018-12-18T01:06:47.248Z,6.50
2018-12-18T01:09:16.515Z,6.50
2018-12-18T01:11:44.895Z,6.50
2018-12-18T01:14:13.279Z,6.50
2018-12-18T01:16:42.262Z,6.60
2018-12-18T01:19:10.743Z,6.60
2018-12-18T01:21:39.094Z,6.60
2018-12-18T01:24:08.020Z,6.60
2018-12-18T01:26:36.426Z,6.60
2018-12-18T01:29:04.799Z,6.60
2018-12-18T01:31:33.218Z,6.70
2018-12-18T01:34:01.558Z,6.70
2018-12-18T01:36:29.942Z,6.70
2018-12-18T01:38:58.630Z,6.70
2018-12-18T01:41:27.011Z,6.70
2018-12-18T01:43:55.483Z,6.70
2018-12-18T01:46:23.891Z,6.70
2018-12-18T01:48:52.240Z,6.80
2018-12-18T01:51:20.785Z,6.70
2018-12-18T01:53:49.410Z,6.80
2018-12-18T01:56:17.799Z,6.80
2018-12-18T01:58:46.178Z,6.80
2018-12-18T02:01:15.091Z,6.80
2018-12-18T02:03:43.454Z,6.80
2018-12-18T02:06:11.831Z,6.80
2018-12-18T02:08:40.482Z,6.80
2018-12-18T02:11:08.875Z,6.80
2018-12-18T02:13:37.252Z,6.80
2018-12-18T02:16:06.138Z,6.80
2018-12-18T02:18:34.664Z,6.80
2018-12-18T02:21:03.027Z,6.90
2018-12-18T02:23:31.438Z,6.90
2018-12-18T02:25:59.780Z,6.90
2018-12-18T02:28:28.127Z,6.90
2018-12-18T02:30:56.758Z,6.90
2018-12-18T02:33:25.132Z,6.90
2018-12-18T02:35:53.491Z,6.90
2018-12-18T02:38:22.982Z,6.90
2018-12-18T02:40:51.331Z,6.90
2018-12-18T02:43:19.702Z,6.90
2018-12-18T02:45:48.615Z,7.00
2018-12-18T02:48:17.570Z,7.00
2018-12-18T02:50:45.940Z,7.00
2018-12-18T02:53:14.504Z,7.00
2018-12-18T02:55:42.879Z,7.00
2018-12-18T02:58:11.335Z,7.00
2018-12-18T03:00:39.811Z,7.00
2018-12-18T03:03:08.147Z,7.00
2018-12-18T03:05:36.629Z,7.00
2018-12-18T03:08:05.015Z,7.00
2018-12-18T03:10:33.628Z,7.00
2018-12-18T03:13:01.995Z,7.00
2018-12-18T03:15:30.403Z,7.00
2018-12-18T03:17:58.738Z,7.00
2018-12-18T03:20:27.243Z,7.00
2018-12-18T03:22:55.701Z,7.00
2018-12-18T03:25:24.072Z,7.00
2018-12-18T03:27:52.418Z,7.00
2018-12-18T03:30:21.217Z,7.00
2018-12-18T03:32:52.336Z,7.00
2018-12-18T03:35:21.058Z,7.00
2018-12-18T03:37:49.440Z,7.00
2018-12-18T03:40:17.796Z,7.00
2018-12-18T03:42:46.188Z,7.10
2018-12-18T03:45:14.657Z,7.00
2018-12-18T03:47:43.115Z,7.00
2018-12-18T03:50:12.034Z,7.00
2018-12-18T03:52:40.411Z,7.00
2018-12-18T03:55:08.921Z,7.00
2018-12-18T03:57:37.721Z,7.00
2018-12-18T04:00:09.121Z,7.00
2018-12-18T04:02:37.952Z,7.00
2018-12-18T04:05:06.887Z,7.00
2018-12-18T04:07:36.762Z,7.00
2018-12-18T04:10:05.838Z,7.00
2018-12-18T04:12:34.199Z,7.00
2018-12-18T04:15:02.661Z,7.10
2018-12-18T04:17:31.295Z,7.00
2018-12-18T04:19:59.762Z,7.00
2018-12-18T04:22:28.128Z,7.00
2018-12-18T04:24:56.529Z,7.00
2018-12-18T04:27:24.886Z,7.00
2018-12-18T04:29:53.243Z,7.10
2018-12-18T04:32:21.624Z,7.00
2018-12-18T04:34:49.994Z,7.10
2018-12-18T04:37:18.351Z,7.00
2018-12-18T04:39:46.835Z,7.10
2018-12-18T04:42:15.170Z,7.10
2018-12-18T04:44:44.490Z,7.00
2018-12-18T04:47:13.567Z,7.00
2018-12-18T04:49:41.979Z,7.10
2018-12-18T04:52:10.339Z,7.10
2018-12-18T04:54:39.076Z,7.10
2018-12-18T04:57:07.521Z,7.10
2018-12-18T04:59:35.883Z,7.10
2018-12-18T05:02:04.468Z,7.20
2018-12-18T05:04:32.896Z,7.20
2018-12-18T05:07:01.356Z,7.20
2018-12-18T05:09:30.869Z,7.20
2018-12-18T05:11:59.228Z,7.20
2018-12-18T05:14:27.615Z,7.20
2018-12-18T05:16:55.999Z,7.20
2018-12-18T05:19:24.359Z,7.20
2018-12-18T05:21:52.715Z,7.20
2018-12-18T05:24:21.399Z,7.20
2018-12-18T05:26:49.860Z,7.20
2018-12-18T05:29:18.216Z,7.20
2018-12-18T05:31:46.941Z,7.30
2018-12-18T05:34:15.329Z,7.20
2018-12-18T05:36:44.422Z,7.20
2018-12-18T05:39:12.856Z,7.30
2018-12-18T05:41:41.248Z,7.30
2018-12-18T05:44:09.602Z,7.30
2018-12-18T05:46:38.121Z,7.30
2018-12-18T05:49:06.606Z,7.30
2018-12-18T05:51:36.439Z,7.40
2018-12-18T05:54:06.593Z,7.40
2018-12-18T05:56:34.972Z,7.40
2018-12-18T05:59:03.608Z,7.40
2018-12-18T06:04:07.435Z,7.40
2018-12-18T06:06:36.155Z,7.40
2018-12-18T06:09:06.834Z,7.40
2018-12-18T06:11:35.226Z,7.40
2018-12-18T06:14:04.699Z,7.40
2018-12-18T06:16:33.039Z,7.40
2018-12-18T06:19:01.403Z,7.40
2018-12-18T06:21:29.862Z,7.50
2018-12-18T06:23:58.218Z,7.40
2018-12-18T06:26:26.563Z,7.40
2018-12-18T06:28:55.316Z,7.40
2018-12-18T06:31:23.690Z,7.50
2018-12-18T06:33:52.035Z,7.50
2018-12-18T06:36:20.671Z,7.50
2018-12-18T06:38:49.047Z,7.50
2018-12-18T06:41:17.439Z,7.50
2018-12-18T06:43:45.602Z,7.50
2018-12-18T06:46:13.965Z,7.50
2018-12-18T06:48:42.371Z,7.50
2018-12-18T06:51:10.808Z,7.50
2018-12-18T06:53:39.251Z,7.50
2018-12-18T06:56:07.613Z,7.60
2018-12-18T06:58:36.094Z,7.50
2018-12-18T07:01:04.511Z,7.60
2018-12-18T07:03:33.003Z,7.50
2018-12-18T07:06:01.415Z,7.50
2018-12-18T07:08:30.289Z,7.60
2018-12-18T07:10:58.786Z,7.50
2018-12-18T07:13:27.823Z,7.50
2018-12-18T07:15:56.176Z,7.60
2018-12-18T07:18:24.543Z,7.50
2018-12-18T07:20:52.899Z,7.60
2018-12-18T07:23:21.230Z,7.60
2018-12-18T07:25:49.652Z,7.60
2018-12-18T07:28:18.457Z,7.60
2018-12-18T07:30:46.979Z,7.60
2018-12-18T07:33:15.334Z,7.60
2018-12-18T07:35:44.237Z,7.60
2018-12-18T07:38:12.572Z,7.60
2018-12-18T07:40:41.200Z,7.60
2018-12-18T07:43:10.299Z,7.60
2018-12-18T07:45:38.639Z,7.50
2018-12-18T07:48:06.973Z,7.60
2018-12-18T07:50:38.660Z,7.60
2018-12-18T07:53:07.268Z,7.60
2018-12-18T07:55:35.831Z,7.60
2018-12-18T07:58:04.874Z,7.60
2018-12-18T08:00:33.230Z,7.60
2018-12-18T08:03:01.719Z,7.60
2018-12-18T08:05:30.667Z,7.60
2018-12-18T08:07:59.027Z,7.60
2018-12-18T08:10:27.495Z,7.60
2018-12-18T08:12:56.228Z,7.60
2018-12-18T08:15:24.586Z,7.60
2018-12-18T08:17:52.927Z,7.60
2018-12-18T08:20:21.396Z,7.60
2018-12-18T08:22:49.826Z,7.60
2018-12-18T08:25:18.239Z,7.60
2018-12-18T08:27:46.610Z,7.60
2018-12-18T08:30:15.183Z,7.50
2018-12-18T08:32:43.642Z,7.60
2018-12-18T08:35:12.440Z,7.60
2018-12-18T08:37:40.799Z,7.60
2018-12-18T08:40:09.391Z,7.60
2018-12-18T08:42:38.158Z,7.60
2018-12-18T08:45:08.125Z,7.60
2018-12-18T08:47:36.478Z,7.70
2018-12-18T08:50:05.857Z,7.70
2018-12-18T08:52:34.243Z,7.70
2018-12-18T08:55:02.599Z,7.70
2018-12-18T08:57:31.283Z,7.70
2018-12-18T08:59:59.643Z,7.80
2018-12-18T09:02:27.982Z,7.80
2018-12-18T09:04:56.786Z,7.80
2018-12-18T09:07:25.163Z,7.80
2018-12-18T09:09:53.599Z,7.80
2018-12-18T09:12:22.531Z,7.90
2018-12-18T09:14:56.267Z,7.90
2018-12-18T09:17:30.069Z,7.90
2018-12-18T09:19:58.426Z,7.90
2018-12-18T09:22:26.754Z,7.90
2018-12-18T09:24:55.684Z,8.00
2018-12-18T09:27:24.043Z,8.00
2018-12-18T09:29:52.395Z,8.00
2018-12-18T09:32:20.750Z,8.00
2018-12-18T09:34:49.111Z,8.00
2018-12-18T09:37:17.468Z,8.10
2018-12-18T09:39:47.863Z,8.10
2018-12-18T09:42:21.599Z,8.10
2018-12-18T09:44:50.132Z,8.10
2018-12-18T09:47:18.538Z,8.10
2018-12-18T09:49:46.888Z,8.10
2018-12-18T09:52:15.835Z,8.10
2018-12-18T09:54:44.190Z,8.10
2018-12-18T09:57:18.420Z,8.10
2018-12-18T09:59:46.782Z,8.10
2018-12-18T10:02:15.227Z,8.10
2018-12-18T10:04:43.951Z,8.10
2018-12-18T10:07:12.380Z,8.10
2018-12-18T10:09:40.858Z,8.10
2018-12-18T10:12:09.521Z,8.10
2018-12-18T10:14:38.081Z,8.10
2018-12-18T10:17:06.886Z,8.10
2018-12-18T10:19:35.680Z,8.10
2018-12-18T10:22:04.144Z,8.10
2018-12-18T10:24:32.542Z,8.10
2018-12-18T10:27:01.033Z,8.10
2018-12-18T10:29:29.400Z,8.10
2018-12-18T10:31:57.894Z,8.10
2018-12-18T10:34:26.624Z,8.20
2018-12-18T10:36:54.977Z,8.20
2018-12-18T10:39:23.346Z,8.10
2018-12-18T10:41:52.093Z,8.20
2018-12-18T10:44:20.461Z,8.20
2018-12-18T10:46:48.831Z,8.20
2018-12-18T10:49:17.239Z,8.20
2018-12-18T10:51:45.607Z,8.20
2018-12-18T10:54:13.942Z,8.20
2018-12-18T10:56:42.415Z,8.30
2018-12-18T10:59:10.777Z,8.20
2018-12-18T11:01:45.215Z,8.30
2018-12-18T11:04:13.591Z,8.30
2018-12-18T11:06:41.984Z,8.30
2018-12-18T11:09:10.968Z,8.30
2018-12-18T11:11:39.380Z,8.40
2018-12-18T11:14:08.447Z,8.50
2018-12-18T11:16:37.706Z,8.50
2018-12-18T11:19:06.126Z,8.50
2018-12-18T11:21:34.596Z,8.60
2018-12-18T11:24:03.195Z,8.50
2018-12-18T11:26:31.538Z,8.50
2018-12-18T11:28:59.904Z,8.60
2018-12-18T11:31:31.146Z,8.60
2018-12-18T11:33:59.771Z,8.60
2018-12-18T11:36:30.042Z,8.60
2018-12-18T11:38:58.738Z,8.50
2018-12-18T11:41:27.584Z,8.50
2018-12-18T11:43:56.263Z,8.50
2018-12-18T11:46:24.623Z,8.50
2018-12-18T11:48:53.010Z,8.50
2018-12-18T11:51:21.715Z,8.50
2018-12-18T11:53:50.130Z,8.50
2018-12-18T11:56:18.479Z,8.50
2018-12-18T11:58:47.406Z,8.50
2018-12-18T12:01:16.087Z,8.50
2018-12-18T12:03:44.712Z,8.50
2018-12-18T12:06:13.171Z,8.60
2018-12-18T12:08:42.323Z,8.50
2018-12-18T12:11:10.722Z,8.50
2018-12-18T12:13:40.079Z,8.60
2018-12-18T12:16:08.453Z,8.50
2018-12-18T12:18:36.887Z,8.50
2018-12-18T12:21:05.501Z,8.50
2018-12-18T12:23:34.098Z,8.50
2018-12-18T12:26:07.045Z,8.50
2018-12-18T12:28:35.395Z,8.50
2018-12-18T12:31:03.880Z,8.50
2018-12-18T12:33:32.741Z,8.50
2018-12-18T12:36:01.990Z,8.50
2018-12-18T12:38:30.362Z,8.50
2018-12-18T12:40:58.843Z,8.50
2018-12-18T12:43:28.394Z,8.40
2018-12-18T12:45:56.735Z,8.40
2018-12-18T12:48:30.071Z,8.40
2018-12-18T12:50:58.431Z,8.40
2018-12-18T12:53:26.987Z,8.30
2018-12-18T12:55:55.395Z,8.30
2018-12-18T12:58:23.748Z,8.30
2018-12-18T13:00:52.115Z,8.30
2018-12-18T13:03:21.041Z,8.30
2018-12-18T13:05:49.405Z,8.30
2018-12-18T13:08:17.771Z,8.30
2018-12-18T13:10:46.147Z,8.30
2018-12-18T13:13:15.559Z,8.30
2018-12-18T13:15:43.916Z,8.30
2018-12-18T13:18:12.310Z,8.40
2018-12-18T13:20:40.966Z,8.50
2018-12-18T13:23:09.314Z,8.50
2018-12-18T13:25:39.629Z,8.60
2018-12-18T13:28:08.027Z,8.60
2018-12-18T13:30:36.690Z,8.70
2018-12-18T13:33:05.407Z,8.70
2018-12-18T13:35:33.787Z,8.70
2018-12-18T13:38:02.391Z,8.70
2018-12-18T13:40:32.314Z,8.70
2018-12-18T13:43:00.932Z,8.70
2018-12-18T13:45:29.887Z,8.60
2018-12-18T13:47:58.903Z,8.60
2018-12-18T13:50:28.538Z,8.60
2018-12-18T13:52:57.249Z,8.60
2018-12-18T13:55:25.942Z,8.60
2018-12-18T13:57:54.299Z,8.60
2018-12-18T14:00:22.657Z,8.50
2018-12-18T14:02:51.702Z,8.50
2018-12-18T14:05:20.084Z,8.50
2018-12-18T14:07:49.554Z,8.50
2018-12-18T14:10:20.752Z,8.50
2018-12-18T14:12:56.046Z,8.40
2018-12-18T14:15:24.934Z,8.40
2018-12-18T14:17:53.787Z,8.40
2018-12-18T14:20:22.220Z,8.40
2018-12-18T14:22:51.341Z,8.40
2018-12-18T14:25:19.704Z,8.30
2018-12-18T14:27:48.084Z,8.30
2018-12-18T14:30:17.898Z,8.30
2018-12-18T14:32:47.259Z,8.30
2018-12-18T14:35:16.390Z,8.20
2018-12-18T14:37:45.230Z,8.20
2018-12-18T14:40:13.678Z,8.20
2018-12-18T14:42:42.057Z,8.20
2018-12-18T14:45:10.623Z,8.20
2018-12-18T14:47:38.987Z,8.20
2018-12-18T14:50:08.078Z,8.10
2018-12-18T14:52:37.046Z,8.10
2018-12-18T14:55:05.763Z,8.10
2018-12-18T14:57:34.808Z,8.10
2018-12-18T15:00:04.040Z,8.10
2018-12-18T15:02:32.430Z,8.00
2018-12-18T15:05:00.835Z,8.00
2018-12-18T15:07:29.742Z,8.00
2018-12-18T15:09:58.123Z,7.90
2018-12-18T15:12:26.519Z,7.90
2018-12-18T15:14:55.331Z,7.90
2018-12-18T15:17:23.819Z,7.80
2018-12-18T15:19:52.175Z,7.80
2018-12-18T15:22:21.079Z,7.80
2018-12-18T15:24:49.572Z,7.70
2018-12-18T15:27:18.023Z,7.70
2018-12-18T15:29:46.526Z,7.70
2018-12-18T15:32:14.886Z,7.70
2018-12-18T15:34:43.367Z,7.60
2018-12-18T15:37:12.323Z,7.60
2018-12-18T15:39:40.670Z,7.60
2018-12-18T15:42:09.179Z,7.60
2018-12-18T15:44:37.632Z,7.50
2018-12-18T15:47:05.985Z,7.50
2018-12-18T15:49:34.360Z,7.60
2018-12-18T15:52:03.349Z,7.50
2018-12-18T15:54:32.169Z,7.50
2018-12-18T15:57:00.606Z,7.50
2018-12-18T15:59:29.402Z,7.40
2018-12-18T16:01:57.775Z,7.40
2018-12-18T16:04:26.148Z,7.40
2018-12-18T16:06:54.658Z,7.40
2018-12-18T16:09:23.087Z,7.40
2018-12-18T16:11:51.442Z,7.40
2018-12-18T16:14:20.050Z,7.40
2018-12-18T16:16:48.429Z,7.40
2018-12-18T16:19:17.311Z,7.40
2018-12-18T16:21:46.347Z,7.40
2018-12-18T16:24:14.978Z,7.40
2018-12-18T16:26:44.250Z,7.40
2018-12-18T16:29:13.018Z,7.30
2018-12-18T16:31:41.388Z,7.40
2018-12-18T16:34:09.843Z,7.40
2018-12-18T16:36:38.282Z,7.40
2018-12-18T16:39:07.758Z,7.30
2018-12-18T16:41:36.121Z,7.30
2018-12-18T16:44:04.610Z,7.30
2018-12-18T16:46:32.996Z,7.30
2018-12-18T16:49:01.422Z,7.30
2018-12-18T16:51:30.370Z,7.30
2018-12-18T16:53:59.001Z,7.20
2018-12-18T16:56:27.413Z,7.30
2018-12-18T16:58:56.347Z,7.20
2018-12-18T17:01:24.702Z,7.20
2018-12-18T17:03:53.059Z,7.20
2018-12-18T17:06:21.766Z,7.10
2018-12-18T17:08:50.167Z,7.10
2018-12-18T17:11:18.530Z,7.00
2018-12-18T17:13:47.393Z,7.00
2018-12-18T17:16:16.063Z,7.10
2018-12-18T17:18:44.495Z,7.10
2018-12-18T17:21:13.375Z,7.10
2018-12-18T17:23:41.742Z,7.00
2018-12-18T17:26:10.106Z,7.00
2018-12-18T17:28:39.021Z,7.00
2018-12-18T17:31:07.351Z,7.00
2018-12-18T17:33:35.727Z,7.00
2018-12-18T17:36:04.415Z,7.00
2018-12-18T17:38:32.767Z,6.90
2018-12-18T17:41:01.172Z,6.90
2018-12-18T17:43:29.839Z,6.90
2018-12-18T17:45:58.246Z,6.90
2018-12-18T17:48:26.603Z,6.90
2018-12-18T17:50:55.371Z,6.80
2018-12-18T17:53:23.798Z,6.80
2018-12-18T17:55:52.553Z,6.80
2018-12-18T17:58:20.944Z,6.80
2018-12-18T18:00:49.324Z,6.80
2018-12-18T18:03:17.740Z,6.70
2018-12-18T18:05:46.943Z,6.70
2018-12-18T18:08:15.327Z,6.70
2018-12-18T18:10:43.697Z,6.60
2018-12-18T18:13:12.623Z,6.60
2018-12-18T18:15:41.014Z,6.60
2018-12-18T18:18:09.392Z,6.60
2018-12-18T18:20:38.073Z,6.60
2018-12-18T18:23:06.747Z,6.50
2018-12-18T18:25:35.266Z,6.50
2018-12-18T18:28:03.652Z,6.50
2018-12-18T18:30:32.010Z,6.50
2018-12-18T18:33:00.375Z,6.50
2018-12-18T18:35:29.583Z,6.50
2018-12-18T18:37:57.964Z,6.40
2018-12-18T18:40:26.359Z,6.40
2018-12-18T18:42:54.910Z,6.40
2018-12-18T18:45:23.412Z,6.40
2018-12-18T18:47:52.027Z,6.40
2018-12-18T18:50:20.864Z,6.40
2018-12-18T18:52:49.242Z,6.40
2018-12-18T18:55:17.844Z,6.40
2018-12-18T18:57:46.844Z,6.40
2018-12-18T19:00:15.341Z,6.50
2018-12-18T19:02:43.722Z,6.50
2018-12-18T19:05:12.636Z,6.40
2018-12-18T19:07:41.007Z,6.50
2018-12-18T19:10:09.503Z,6.50
2018-12-18T19:12:37.870Z,6.50
2018-12-18T19:15:06.442Z,6.50
2018-12-18T19:17:34.807Z,6.40
2018-12-18T19:20:03.310Z,6.50
2018-12-18T19:22:31.642Z,6.50
2018-12-18T19:25:00.055Z,6.40
2018-12-18T19:27:28.807Z,6.50
2018-12-18T19:29:57.168Z,6.50
2018-12-18T19:32:25.544Z,6.40
2018-12-18T19:34:53.908Z,6.40
2018-12-18T19:37:22.324Z,6.50
2018-12-18T19:39:50.868Z,6.50
2018-12-18T19:42:19.483Z,6.50
2018-12-18T19:44:47.935Z,6.50
2018-12-18T19:47:16.402Z,6.50
2018-12-18T19:49:45.116Z,6.50
2018-12-18T19:52:13.532Z,6.50
2018-12-18T19:54:41.912Z,6.50
2018-12-18T19:57:10.622Z,6.50
2018-12-18T19:59:39.003Z,6.50
2018-12-18T20:02:07.380Z,6.50
2018-12-18T20:04:36.101Z,6.50
2018-12-18T20:07:05.095Z,6.50
2018-12-18T20:09:33.481Z,6.50
2018-12-18T20:12:02.373Z,6.50
2018-12-18T20:14:30.826Z,6.50
2018-12-18T20:16:59.246Z,6.50
2018-12-18T20:19:27.951Z,6.50
2018-12-18T20:21:56.789Z,6.50
2018-12-18T20:24:25.271Z,6.50
2018-12-18T20:26:54.645Z,6.50
2018-12-18T20:29:23.003Z,6.50
2018-12-18T20:31:51.384Z,6.50
2018-12-18T20:34:20.084Z,6.50
2018-12-18T20:36:48.447Z,6.50
2018-12-18T20:39:16.895Z,6.50
2018-12-18T20:41:45.575Z,6.50
2018-12-18T20:44:14.031Z,6.50
2018-12-18T20:46:42.404Z,6.50
2018-12-18T20:49:11.118Z,6.50
2018-12-18T20:51:39.503Z,6.50
2018-12-18T20:54:07.871Z,6.50
2018-12-18T20:56:36.953Z,6.40
2018-12-18T20:59:05.465Z,6.40
2018-12-18T21:01:33.862Z,6.40
2018-12-18T21:04:02.779Z,6.40
2018-12-18T21:06:32.347Z,6.40
2018-12-18T21:09:00.738Z,6.40
2018-12-18T21:11:29.758Z,6.40
2018-12-18T21:13:58.132Z,6.40
2018-12-18T21:16:26.663Z,6.40
2018-12-18T21:18:55.070Z,6.40
2018-12-18T21:21:23.478Z,6.40
2018-12-18T21:23:53.691Z,6.40
2018-12-18T21:26:23.658Z,6.40
2018-12-18T21:28:52.254Z,6.40
2018-12-18T21:31:20.606Z,6.40
2018-12-18T21:33:49.235Z,6.30
2018-12-18T21:36:18.273Z,6.40
2018-12-18T21:38:48.396Z,6.40
2018-12-18T21:41:17.195Z,6.40
2018-12-18T21:43:45.811Z,6.40
2018-12-18T21:46:14.268Z,6.30
2018-12-18T21:48:42.708Z,6.30
2018-12-18T21:51:11.046Z,6.40
2018-12-18T21:53:39.523Z,6.30
2018-12-18T21:56:08.210Z,6.30
2018-12-18T21:58:36.583Z,6.30
2018-12-18T22:01:04.930Z,6.30
2018-12-18T22:03:33.713Z,6.30
2018-12-18T22:06:02.134Z,6.20
2018-12-18T22:08:36.719Z,6.20
2018-12-18T22:11:02.221Z,6.20
2018-12-18T22:13:30.659Z,6.20
2018-12-18T22:15:59.043Z,6.20
2018-12-18T22:18:27.435Z,6.20
2018-12-18T22:20:55.802Z,6.20
2018-12-18T22:23:24.155Z,6.20
2018-12-18T22:25:52.942Z,6.30
2018-12-18T22:28:21.287Z,6.30
2018-12-18T22:30:49.699Z,6.30
2018-12-18T22:33:18.585Z,6.30
2018-12-18T22:35:46.926Z,6.20
2018-12-18T22:38:15.279Z,6.30
2018-12-18T22:40:43.711Z,6.30
2018-12-18T22:43:12.067Z,6.30
2018-12-18T22:45:40.573Z,6.30
2018-12-18T22:48:09.030Z,6.30
2018-12-18T22:50:37.389Z,6.30
2018-12-18T22:53:05.813Z,6.30
2018-12-18T22:55:34.822Z,6.30
2018-12-18T22:58:03.189Z,6.30
2018-12-18T23:00:37.467Z,6.30
2018-12-18T23:03:05.914Z,6.40
2018-12-18T23:05:34.334Z,6.30
2018-12-18T23:08:02.752Z,6.40
2018-12-18T23:10:31.139Z,6.40
2018-12-18T23:12:59.491Z,6.30
2018-12-18T23:15:28.007Z,6.40
2018-12-18T23:17:56.376Z,6.40
2018-12-18T23:20:24.791Z,6.40
2018-12-18T23:22:53.599Z,6.40
2018-12-18T23:25:22.313Z,6.40
2018-12-18T23:42:16.774Z,6.30
2018-12-18T23:44:45.039Z,6.40
2018-12-18T23:47:13.324Z,6.40
2018-12-18T23:49:41.945Z,6.50
2018-12-18T23:52:10.303Z,6.50
2018-12-18T23:54:38.567Z,6.50
2018-12-18T23:57:06.858Z,6.50
2018-12-18T23:59:35.105Z,6.60
